Time;durP1;ratioP1;P1;durP2;ratioP2;P2;SDS_P1;SDS_P2;PMS_P1;PMS_P2;Temp;Humidity;BMP_temperature;BMP_pressure;BME280_temperature;BME280_humidity;BME280_pressure;Samples;Min_cycle;Max_cycle;Signal;HPM_P1;HPM_P2
2022/12/08 00:00:54;;;;;;;49.17;30.77;;;;;;;10.00;81.91;100713.28;5050442;28;20120;-74
2022/12/08 00:03:19;;;;;;;48.75;28.52;;;;;;;10.07;82.12;100709.13;5050446;28;20028;-77
2022/12/08 00:11:14;;;;;;;44.22;26.80;;;;;;;10.02;80.95;100714.03;5057906;28;20060;-75
2022/12/08 00:13:40;;;;;;;46.83;27.30;;;;;;;9.66;81.08;100686.31;5055389;28;20531;-75
2022/12/08 00:16:06;;;;;;;44.75;27.33;;;;;;;9.69;81.54;100712.09;5051360;28;20040;-74
2022/12/08 00:18:31;;;;;;;62.92;29.27;;;;;;;9.81;82.08;100709.31;5050124;28;20448;-74
2022/12/08 00:20:57;;;;;;;56.85;32.30;;;;;;;9.60;82.54;100713.63;5049980;28;20491;-74
2022/12/08 00:23:23;;;;;;;58.88;30.02;;;;;;;9.66;82.93;100689.00;5049851;28;20025;-75
2022/12/08 00:25:48;;;;;;;53.67;29.65;;;;;;;9.73;83.11;100702.81;5051224;28;20060;-75
2022/12/08 00:28:14;;;;;;;49.00;28.55;;;;;;;9.78;82.87;100706.88;5050058;28;20029;-75
2022/12/08 00:30:40;;;;;;;46.80;27.92;;;;;;;9.65;82.78;100703.41;5049973;28;20032;-75
2022/12/08 00:33:05;;;;;;;49.22;27.83;;;;;;;9.57;83.18;100708.50;5049866;28;20033;-75
2022/12/08 00:35:31;;;;;;;46.22;25.40;;;;;;;9.66;83.31;100707.81;5049876;28;20494;-75
2022/12/08 00:37:56;;;;;;;45.78;26.48;;;;;;;9.61;83.33;100707.31;5049586;28;20135;-75
2022/12/08 00:40:22;;;;;;;50.90;26.65;;;;;;;9.71;83.31;100702.97;5049584;28;20039;-75
2022/12/08 00:42:47;;;;;;;44.58;25.48;;;;;;;9.60;82.95;100708.28;5049801;28;20110;-75
2022/12/08 00:45:13;;;;;;;47.63;26.45;;;;;;;9.69;82.81;100722.84;5049600;28;20028;-75
2022/12/08 00:47:38;;;;;;;57.20;28.63;;;;;;;9.64;82.67;100707.06;5049758;28;20458;-75
2022/12/08 00:50:04;;;;;;;60.25;29.83;;;;;;;9.58;82.63;100699.47;5050677;28;20049;-75
2022/12/08 00:52:30;;;;;;;48.28;27.92;;;;;;;9.61;82.38;100703.75;5050639;28;20041;-76
2022/12/08 00:54:55;;;;;;;56.05;25.98;;;;;;;9.58;82.39;100715.59;5049486;28;20074;-76
2022/12/08 00:57:20;;;;;;;50.15;27.35;;;;;;;9.52;82.56;100713.38;5049424;28;20021;-75
2022/12/08 00:59:46;;;;;;;42.17;25.52;;;;;;;9.56;82.82;100725.59;5049336;28;20469;-74
2022/12/08 01:02:11;;;;;;;45.25;27.67;;;;;;;9.59;82.63;100714.63;5048928;28;20025;-77
2022/12/08 01:04:37;;;;;;;48.60;26.70;;;;;;;9.53;82.81;100695.44;5049419;28;20029;-75
2022/12/08 01:07:03;;;;;;;55.88;30.50;;;;;;;9.51;82.57;100708.97;5048912;28;20029;-74
2022/12/08 01:09:28;;;;;;;53.60;28.15;;;;;;;9.44;83.10;100707.75;5049111;28;20078;-74
2022/12/08 01:11:54;;;;;;;45.75;26.60;;;;;;;9.43;83.07;100706.00;5048035;28;20032;-76
2022/12/08 01:14:19;;;;;;;48.30;28.67;;;;;;;9.41;83.30;100699.91;5051351;28;20110;-77
2022/12/08 01:16:45;;;;;;;50.50;27.73;;;;;;;9.39;83.38;100698.31;5055378;28;20059;-75
2022/12/08 01:19:12;;;;;;;46.50;28.63;;;;;;;9.41;83.52;100707.09;5053196;28;20021;-74
2022/12/08 01:21:39;;;;;;;58.50;28.73;;;;;;;9.41;83.49;100707.97;5047524;28;20118;-74
2022/12/08 01:24:05;;;;;;;49.83;29.20;;;;;;;9.42;83.36;100711.53;5048948;28;20063;-75
2022/12/08 01:26:31;;;;;;;51.35;26.75;;;;;;;9.25;83.33;100668.00;5048933;28;20032;-74
2022/12/08 01:28:56;;;;;;;49.30;27.48;;;;;;;9.40;83.15;100703.56;5048811;28;20037;-74
2022/12/08 01:31:22;;;;;;;47.67;26.15;;;;;;;9.44;83.40;100702.38;5048860;28;20032;-75
2022/12/08 01:33:48;;;;;;;45.35;26.95;;;;;;;9.52;82.76;100699.94;5048723;28;20041;-76
2022/12/08 01:36:18;;;;;;;54.40;27.67;;;;;;;9.58;83.14;100704.84;5048656;28;20025;-75
2022/12/08 01:38:44;;;;;;;58.58;29.95;;;;;;;9.54;83.17;100698.00;5048556;28;20036;-74
2022/12/08 01:41:13;;;;;;;45.65;27.40;;;;;;;9.47;83.19;100691.41;5048642;28;20025;-75
2022/12/08 01:44:06;;;;;;;58.97;26.63;;;;;;;9.46;83.32;100688.81;5048852;28;20052;-74
2022/12/08 01:46:33;;;;;;;53.90;27.10;;;;;;;9.57;83.46;100688.88;4986986;28;20174;-74
2022/12/08 01:49:07;;;;;;;46.60;26.92;;;;;;;9.53;83.10;100684.72;4986825;28;20046;-74
2022/12/08 01:51:42;;;;;;;58.38;27.77;;;;;;;9.53;83.33;100695.44;4987300;28;20574;-76
2022/12/08 01:54:09;;;;;;;52.38;28.15;;;;;;;9.34;83.18;100668.28;4987177;28;20122;-74
2022/12/08 01:56:45;;;;;;;47.38;27.10;;;;;;;9.29;83.36;100682.88;4987093;28;20038;-74
2022/12/08 01:59:11;;;;;;;43.72;26.73;;;;;;;9.37;83.68;100687.69;4986973;28;20030;-74
2022/12/08 02:01:37;;;;;;;49.72;27.17;;;;;;;9.33;83.61;100667.41;4986930;28;20096;-75
2022/12/08 02:04:04;;;;;;;79.05;39.20;;;;;;;9.55;83.01;100698.84;4986876;28;20054;-75
2022/12/08 02:06:33;;;;;;;51.97;28.10;;;;;;;9.52;83.07;100689.22;4986616;28;20053;-75
2022/12/08 02:09:01;;;;;;;47.92;25.95;;;;;;;9.57;83.12;100687.03;4986893;28;20073;-74
2022/12/08 02:11:26;;;;;;;57.17;29.33;;;;;;;9.49;82.75;100694.81;4986893;28;20046;-75
2022/12/08 02:13:53;;;;;;;54.38;27.27;;;;;;;9.56;82.65;100696.06;4988635;28;20073;-74
2022/12/08 02:16:42;;;;;;;47.47;25.20;;;;;;;9.57;82.56;100699.63;4990354;28;20042;-75
2022/12/08 02:19:43;;;;;;;42.00;24.42;;;;;;;9.56;82.50;100701.44;4992304;28;20057;-75
2022/12/08 02:22:23;;;;;;;43.95;25.77;;;;;;;9.44;82.54;100697.00;4995425;28;20034;-75
2022/12/08 02:25:11;;;;;;;52.03;26.45;;;;;;;9.26;82.37;100671.56;5035216;28;20036;-74
2022/12/08 02:27:45;;;;;;;43.38;24.58;;;;;;;9.43;82.64;100681.84;5032253;28;20021;-75
2022/12/08 02:30:10;;;;;;;43.10;26.25;;;;;;;9.50;82.44;100693.00;5032266;28;20120;-74
2022/12/08 02:32:51;;;;;;;42.88;26.08;;;;;;;9.31;82.51;100674.72;5032138;28;20540;-74
2022/12/08 02:35:28;;;;;;;52.13;29.70;;;;;;;9.61;83.02;100706.44;5032287;28;20032;-75
2022/12/08 02:38:00;;;;;;;40.65;27.33;;;;;;;9.60;82.96;100702.91;5031763;28;20381;-75
2022/12/08 02:40:46;;;;;;;47.25;26.85;;;;;;;9.54;82.27;100708.72;5032085;28;20112;-75
2022/12/08 02:43:19;;;;;;;43.97;26.27;;;;;;;9.40;82.46;100695.50;5031937;28;20033;-74
2022/12/08 02:45:51;;;;;;;45.63;27.13;;;;;;;9.46;82.07;100704.91;5032091;28;20120;-74
2022/12/08 02:48:16;;;;;;;43.03;26.88;;;;;;;9.46;82.11;100712.97;5031823;28;20596;-77
2022/12/08 02:50:42;;;;;;;51.00;27.85;;;;;;;9.19;82.19;100681.88;5031849;28;20105;-75
2022/12/08 02:53:07;;;;;;;57.13;27.63;;;;;;;9.27;82.24;100705.44;5031754;28;20496;-75
2022/12/08 02:55:51;;;;;;;46.53;26.88;;;;;;;9.32;82.67;100715.84;5031806;28;20381;-74
2022/12/08 02:58:25;;;;;;;51.28;27.50;;;;;;;9.34;82.33;100709.41;5031118;28;20119;-74
2022/12/08 03:01:12;;;;;;;49.42;27.25;;;;;;;9.38;82.98;100705.53;5031705;28;20408;-75
2022/12/08 03:03:51;;;;;;;51.70;27.58;;;;;;;9.36;83.15;100704.75;5031261;28;20424;-75
2022/12/08 03:06:57;;;;;;;46.53;27.50;;;;;;;9.42;83.48;100712.34;5031432;28;20033;-74
2022/12/08 03:10:02;;;;;;;47.22;27.80;;;;;;;9.34;83.32;100706.72;5031644;28;20456;-76
2022/12/08 03:12:40;;;;;;;54.10;27.92;;;;;;;9.33;83.20;100715.72;4989429;28;20043;-76
2022/12/08 03:15:09;;;;;;;38.50;25.75;;;;;;;9.27;83.46;100716.19;4989840;28;20026;-78
2022/12/08 03:17:38;;;;;;;52.60;28.25;;;;;;;9.46;84.04;100721.88;4991131;28;20432;-76
2022/12/08 03:20:10;;;;;;;59.47;28.67;;;;;;;9.37;84.25;100706.47;4989271;28;20109;-75
2022/12/08 03:22:38;;;;;;;44.15;26.30;;;;;;;9.48;84.02;100722.63;4989597;28;20042;-75
2022/12/08 03:25:05;;;;;;;45.33;27.65;;;;;;;9.48;83.57;100724.47;4993013;28;20064;-75
2022/12/08 03:27:31;;;;;;;54.97;28.70;;;;;;;9.51;83.24;100722.38;4993466;28;20021;-76
2022/12/08 03:29:58;;;;;;;67.55;27.45;;;;;;;9.47;83.67;100723.63;4989854;28;20043;-76
2022/12/08 03:32:43;;;;;;;45.85;27.27;;;;;;;9.57;83.83;100723.78;4988985;28;20038;-74
2022/12/08 03:35:14;;;;;;;41.75;27.42;;;;;;;9.59;83.94;100725.38;4988935;28;20132;-76
2022/12/08 03:37:40;;;;;;;44.83;28.00;;;;;;;9.42;83.67;100733.81;4989692;28;20057;-76
2022/12/08 03:40:08;;;;;;;41.22;25.27;;;;;;;9.25;83.50;100723.50;4988752;28;20504;-75
2022/12/08 03:42:33;;;;;;;43.33;25.20;;;;;;;9.33;83.66;100723.78;4988999;28;20097;-76
2022/12/08 03:44:59;;;;;;;45.22;25.27;;;;;;;9.41;83.34;100728.59;4988887;28;20421;-77
2022/12/08 03:47:24;;;;;;;46.42;26.70;;;;;;;9.45;83.11;100735.44;4988488;28;20039;-75
2022/12/08 03:49:50;;;;;;;44.38;24.77;;;;;;;9.26;83.20;100699.22;5020640;28;20060;-75
2022/12/08 03:52:15;;;;;;;50.35;26.17;;;;;;;9.42;82.94;100723.09;5030708;28;20412;-76
2022/12/08 03:54:41;;;;;;;39.85;24.58;;;;;;;9.35;83.20;100729.91;5030713;28;20025;-75
2022/12/08 03:57:06;;;;;;;47.40;27.15;;;;;;;9.45;83.30;100736.28;5030419;28;20110;-76
2022/12/08 03:59:31;;;;;;;46.72;28.67;;;;;;;9.32;82.98;100740.88;5030470;28;20677;-76
2022/12/08 04:01:57;;;;;;;47.55;27.00;;;;;;;9.43;83.41;100748.09;5030618;28;20112;-75
2022/12/08 04:04:22;;;;;;;48.13;26.60;;;;;;;9.23;83.31;100720.09;5030024;28;20040;-74
2022/12/08 04:06:49;;;;;;;45.65;26.88;;;;;;;9.28;83.48;100742.91;5030173;28;20025;-74
2022/12/08 04:09:14;;;;;;;44.33;26.25;;;;;;;9.21;84.03;100744.34;5030086;28;20033;-76
2022/12/08 04:11:40;;;;;;;50.45;29.58;;;;;;;9.27;84.10;100751.06;5030241;28;20036;-75
2022/12/08 04:14:05;;;;;;;58.45;30.70;;;;;;;8.98;84.20;100704.09;5030265;28;20025;-75
2022/12/08 04:16:31;;;;;;;44.42;27.70;;;;;;;8.98;84.39;100714.81;5033186;28;20033;-75
2022/12/08 04:18:56;;;;;;;50.88;30.02;;;;;;;9.13;84.38;100751.25;5048378;28;20170;-76
2022/12/08 04:21:22;;;;;;;54.83;29.63;;;;;;;9.20;84.82;100753.34;5050095;28;20040;-75
2022/12/08 04:23:48;;;;;;;50.70;30.58;;;;;;;9.07;85.13;100751.69;5049339;28;20400;-76
2022/12/08 04:26:13;;;;;;;54.95;30.67;;;;;;;9.08;85.48;100746.19;5045815;28;20079;-75
2022/12/08 04:28:39;;;;;;;55.90;30.25;;;;;;;9.24;85.88;100752.16;5048495;28;20048;-76
2022/12/08 04:31:05;;;;;;;55.47;29.92;;;;;;;9.22;85.95;100758.63;5052438;28;20041;-75
2022/12/08 04:33:31;;;;;;;53.67;29.65;;;;;;;9.22;85.87;100748.75;5052786;28;20076;-76
2022/12/08 04:35:56;;;;;;;53.80;31.80;;;;;;;9.31;85.74;100755.25;5047420;28;20052;-75
2022/12/08 04:38:22;;;;;;;55.60;31.55;;;;;;;9.39;85.36;100763.56;5046541;28;21524;-75
2022/12/08 04:40:47;;;;;;;54.83;30.10;;;;;;;9.48;85.53;100754.84;5048051;28;20033;-76
2022/12/08 04:43:13;;;;;;;51.95;30.85;;;;;;;9.54;85.49;100754.38;5046455;28;20035;-76
2022/12/08 04:45:39;;;;;;;45.85;28.88;;;;;;;9.48;85.12;100752.16;5048955;28;20512;-76
2022/12/08 04:48:05;;;;;;;52.10;28.58;;;;;;;9.29;84.75;100725.00;5052695;28;20093;-75
2022/12/08 04:50:31;;;;;;;55.45;29.33;;;;;;;9.50;84.92;100750.22;5047753;28;20140;-76
2022/12/08 04:52:56;;;;;;;57.60;31.52;;;;;;;9.38;84.55;100724.31;5046308;28;20029;-77
2022/12/08 04:55:22;;;;;;;52.63;30.58;;;;;;;9.48;84.07;100759.38;5046020;28;20465;-76
2022/12/08 04:57:47;;;;;;;58.08;32.58;;;;;;;9.55;84.18;100764.16;5047689;28;20040;-75
2022/12/08 05:00:14;;;;;;;48.22;30.60;;;;;;;9.44;84.21;100745.31;5048826;28;20036;-75
2022/12/08 05:02:39;;;;;;;50.63;29.98;;;;;;;9.60;83.59;100772.72;5048509;28;20419;-75
2022/12/08 05:05:05;;;;;;;50.83;32.78;;;;;;;9.69;83.49;100781.94;5048590;28;20043;-76
2022/12/08 05:07:31;;;;;;;45.47;29.67;;;;;;;9.68;83.33;100781.06;5048761;28;20025;-75
2022/12/08 05:09:57;;;;;;;48.58;30.20;;;;;;;9.72;83.07;100781.69;5048469;28;20043;-77
2022/12/08 05:12:22;;;;;;;50.13;32.63;;;;;;;9.69;82.47;100782.75;5048756;28;20511;-75
2022/12/08 05:14:48;;;;;;;49.92;30.50;;;;;;;9.60;82.53;100778.09;5048540;28;20044;-76
2022/12/08 05:17:15;;;;;;;48.67;31.17;;;;;;;9.67;82.27;100782.03;5048908;28;20786;-76
2022/12/08 05:19:41;;;;;;;54.22;31.50;;;;;;;9.70;82.22;100783.63;5048650;28;20120;-77
2022/12/08 05:22:06;;;;;;;47.63;28.98;;;;;;;9.71;82.00;100775.47;5049147;28;20104;-75
2022/12/08 05:24:32;;;;;;;44.67;29.70;;;;;;;9.72;81.59;100776.34;5048840;28;20053;-76
2022/12/08 05:26:57;;;;;;;57.15;31.05;;;;;;;9.68;81.81;100786.44;5049237;28;20384;-77
2022/12/08 05:29:22;;;;;;;50.08;32.22;;;;;;;9.64;81.66;100801.06;5048791;28;20515;-76
2022/12/08 05:31:48;;;;;;;56.17;34.25;;;;;;;9.55;81.89;100796.38;5049315;28;20029;-76
2022/12/08 05:34:13;;;;;;;50.25;31.38;;;;;;;9.53;82.10;100792.09;5053632;28;20392;-75
2022/12/08 05:36:39;;;;;;;51.53;29.90;;;;;;;9.41;82.04;100777.75;5052830;28;20460;-75
2022/12/08 05:39:04;;;;;;;50.65;30.20;;;;;;;9.33;81.99;100772.09;5049361;28;20094;-75
2022/12/08 05:41:30;;;;;;;53.20;29.73;;;;;;;9.54;82.38;100805.38;5048362;28;20407;-76
2022/12/08 05:43:55;;;;;;;46.78;28.50;;;;;;;9.60;82.10;100817.53;5048566;28;20029;-74
2022/12/08 05:46:21;;;;;;;45.03;28.67;;;;;;;9.56;82.09;100811.53;5048538;28;20052;-76
2022/12/08 05:48:46;;;;;;;48.92;29.08;;;;;;;9.50;82.65;100814.66;5050785;28;20071;-74
2022/12/08 05:51:18;;;;;;;50.60;29.75;;;;;;;9.57;83.17;100825.81;5060463;28;20052;-75
2022/12/08 05:53:44;;;;;;;55.00;30.95;;;;;;;9.54;83.18;100812.63;5061635;28;20025;-75
2022/12/08 05:56:10;;;;;;;54.88;30.10;;;;;;;9.69;83.15;100822.22;5070541;28;20120;-77
2022/12/08 05:58:35;;;;;;;53.70;29.88;;;;;;;9.75;83.06;100830.66;5056617;28;20142;-76
2022/12/08 06:01:00;;;;;;;49.47;30.42;;;;;;;9.63;82.81;100810.06;5052911;28;20761;-77
2022/12/08 06:03:26;;;;;;;47.55;26.13;;;;;;;9.76;83.08;100810.03;5052445;28;20444;-75
2022/12/08 06:05:51;;;;;;;53.30;28.02;;;;;;;9.87;82.85;100831.59;5055851;28;20104;-74
2022/12/08 06:08:16;;;;;;;53.88;32.28;;;;;;;9.87;82.81;100828.03;5052650;28;20082;-75
2022/12/08 06:10:44;;;;;;;58.28;33.65;;;;;;;9.71;83.31;100807.69;5053113;28;20082;-75
2022/12/08 06:13:09;;;;;;;67.90;37.95;;;;;;;9.84;83.35;100832.69;5054696;28;20017;-76
2022/12/08 06:15:36;;;;;;;61.75;36.90;;;;;;;9.95;83.27;100842.59;5054969;28;20032;-75
2022/12/08 06:18:01;;;;;;;60.40;34.33;;;;;;;10.09;83.59;100846.94;5053348;28;20394;-76
2022/12/08 06:20:27;;;;;;;59.13;36.17;;;;;;;10.18;83.56;100843.59;5052690;28;20028;-76
2022/12/08 06:22:54;;;;;;;98.97;56.92;;;;;;;10.29;82.93;100846.28;5052714;28;20025;-77
2022/12/08 06:25:19;;;;;;;85.97;45.45;;;;;;;10.38;82.93;100848.28;5053946;28;20033;-75
2022/12/08 06:27:45;;;;;;;93.57;46.85;;;;;;;10.46;82.55;100843.16;5055235;28;20029;-75
2022/12/08 06:30:10;;;;;;;98.82;48.65;;;;;;;10.46;82.64;100828.88;5054804;28;20032;-75
2022/12/08 06:32:36;;;;;;;90.68;48.25;;;;;;;10.54;82.33;100830.00;5055296;28;20035;-74
2022/12/08 06:35:01;;;;;;;93.15;47.88;;;;;;;10.69;82.49;100839.53;5053255;28;20069;-76
2022/12/08 06:37:27;;;;;;;95.43;50.63;;;;;;;10.82;81.97;100842.97;5059134;28;20029;-76
2022/12/08 06:39:52;;;;;;;90.40;46.55;;;;;;;10.90;82.08;100859.38;5059173;28;20087;-76
2022/12/08 06:45:02;;;;;;;85.00;44.50;;;;;;;11.17;80.99;100855.44;5052519;28;20507;-75
2022/12/08 06:47:28;;;;;;;76.28;45.08;;;;;;;11.25;80.37;100853.03;5052265;28;20037;-75
2022/12/08 06:49:53;;;;;;;84.82;49.90;;;;;;;11.38;80.19;100851.03;5052901;28;20037;-75
2022/12/08 06:52:19;;;;;;;82.30;44.13;;;;;;;11.44;79.20;100842.44;5052686;28;20099;-75
2022/12/08 06:54:44;;;;;;;84.38;43.25;;;;;;;11.44;79.58;100858.59;5051503;28;20400;-77
2022/12/08 06:57:10;;;;;;;91.60;48.22;;;;;;;11.40;80.35;100867.94;5051538;28;20111;-75
2022/12/08 06:59:35;;;;;;;117.38;50.75;;;;;;;11.50;80.12;100865.38;5050875;28;20025;-76
2022/12/08 07:02:00;;;;;;;91.90;44.95;;;;;;;11.46;79.54;100862.06;5051789;28;20369;-76
2022/12/08 07:04:26;;;;;;;108.47;47.22;;;;;;;11.46;78.25;100871.00;5051609;28;20070;-76
2022/12/08 07:06:51;;;;;;;95.20;42.22;;;;;;;11.31;77.14;100863.28;5051642;28;20523;-76
2022/12/08 07:09:17;;;;;;;118.97;46.15;;;;;;;11.36;76.52;100866.47;5051052;28;20025;-76
2022/12/08 07:11:42;;;;;;;99.88;43.70;;;;;;;11.35;76.48;100864.75;5050893;28;20484;-76
2022/12/08 07:14:07;;;;;;;99.05;44.05;;;;;;;11.22;76.42;100864.03;5049722;28;20095;-75
2022/12/08 07:16:33;;;;;;;78.80;42.10;;;;;;;11.15;76.20;100873.56;5051102;28;20506;-74
2022/12/08 07:18:59;;;;;;;92.90;45.67;;;;;;;11.10;76.29;100871.22;5051298;28;20025;-75
2022/12/08 07:21:25;;;;;;;96.30;42.50;;;;;;;11.05;76.04;100864.50;5050738;28;20033;-74
2022/12/08 07:23:50;;;;;;;96.32;42.75;;;;;;;10.81;75.98;100843.97;5050858;28;20028;-74
2022/12/08 07:26:16;;;;;;;82.80;40.03;;;;;;;11.01;75.92;100865.75;5050394;28;20100;-74
2022/12/08 07:28:42;;;;;;;87.13;41.92;;;;;;;10.71;76.04;100869.88;5050769;28;20040;-75
2022/12/08 07:31:19;;;;;;;99.07;44.40;;;;;;;10.63;76.55;100875.00;5051996;28;20044;-76
2022/12/08 07:33:44;;;;;;;87.50;44.42;;;;;;;10.46;77.44;100855.78;5051066;28;20500;-74
2022/12/08 07:36:11;;;;;;;82.85;44.55;;;;;;;10.41;77.64;100872.25;5050977;28;20041;-75
2022/12/08 07:38:36;;;;;;;86.55;42.55;;;;;;;10.50;78.36;100860.78;5052898;28;20059;-75
2022/12/08 07:41:02;;;;;;;87.82;47.08;;;;;;;10.63;78.78;100866.94;5056717;28;20021;-74
2022/12/08 07:43:27;;;;;;;92.82;42.72;;;;;;;10.71;78.62;100864.47;5054583;28;20135;-74
2022/12/08 07:45:53;;;;;;;104.43;49.00;;;;;;;10.70;79.16;100856.56;5050633;28;20020;-75
2022/12/08 07:48:18;;;;;;;99.38;46.83;;;;;;;10.67;79.17;100867.56;5050328;28;20021;-75
2022/12/08 07:50:45;;;;;;;91.07;48.20;;;;;;;10.78;79.72;100870.25;5050421;28;20416;-74
2022/12/08 07:53:11;;;;;;;101.95;49.65;;;;;;;10.77;79.46;100874.75;5050011;28;20033;-75
2022/12/08 07:55:43;;;;;;;125.43;53.13;;;;;;;10.87;79.88;100881.16;5050526;28;20021;-75
2022/12/08 07:58:09;;;;;;;110.18;52.30;;;;;;;11.00;79.36;100874.78;5050049;28;20091;-74
2022/12/08 08:00:35;;;;;;;105.90;57.20;;;;;;;11.10;78.62;100881.16;5050023;28;20120;-75
2022/12/08 08:03:01;;;;;;;122.63;57.15;;;;;;;11.06;78.66;100874.31;5049729;28;20467;-75
2022/12/08 08:05:27;;;;;;;144.73;61.85;;;;;;;11.20;78.39;100877.59;5050401;28;20115;-75
2022/12/08 08:07:52;;;;;;;136.80;57.85;;;;;;;11.33;78.57;100869.41;5049807;28;20112;-76
2022/12/08 08:10:18;;;;;;;142.88;58.22;;;;;;;11.52;78.01;100877.72;5049118;28;20035;-74
2022/12/08 08:12:43;;;;;;;131.07;53.80;;;;;;;11.59;77.25;100878.91;5049242;28;20056;-74
2022/12/08 08:15:09;;;;;;;121.28;55.35;;;;;;;11.78;76.42;100881.84;5049421;28;20551;-75
2022/12/08 08:17:37;;;;;;;124.03;55.45;;;;;;;11.84;75.96;100886.72;5050704;28;20105;-74
2022/12/08 08:20:05;;;;;;;123.78;60.88;;;;;;;11.74;74.68;100863.38;5049352;28;20025;-74
2022/12/08 08:22:32;;;;;;;147.63;66.97;;;;;;;11.88;74.75;100885.50;5049349;28;20129;-75
2022/12/08 08:24:57;;;;;;;140.48;69.43;;;;;;;11.95;74.92;100908.28;5049392;28;20036;-76
2022/12/08 08:27:24;;;;;;;184.57;74.93;;;;;;;11.93;74.67;100898.59;5049987;28;20327;-75
2022/12/08 08:29:49;;;;;;;148.40;69.32;;;;;;;11.91;73.74;100906.81;5049492;28;20500;-75
2022/12/08 08:32:15;;;;;;;125.97;66.97;;;;;;;11.90;73.60;100915.88;5049376;28;20039;-75
2022/12/08 08:34:40;;;;;;;131.23;62.92;;;;;;;11.94;72.98;100917.34;5049669;28;20036;-75
2022/12/08 08:37:06;;;;;;;123.45;68.18;;;;;;;11.87;73.12;100910.72;5049407;28;20036;-75
2022/12/08 08:39:31;;;;;;;126.78;67.18;;;;;;;11.59;72.52;100886.16;5046486;28;20508;-75
2022/12/08 08:41:57;;;;;;;133.02;67.30;;;;;;;11.70;73.50;100907.72;5047271;28;20492;-75
2022/12/08 08:44:22;;;;;;;123.97;68.15;;;;;;;11.75;73.37;100895.56;5050516;28;20044;-75
2022/12/08 08:46:48;;;;;;;129.75;70.10;;;;;;;10.93;73.86;100781.09;5052207;28;20029;-76
2022/12/08 08:49:13;;;;;;;132.50;70.30;;;;;;;11.66;74.47;100906.22;5046894;28;20110;-74
2022/12/08 08:51:39;;;;;;;149.85;70.60;;;;;;;11.76;73.80;100897.28;5046236;28;20256;-74
2022/12/08 08:54:04;;;;;;;148.80;69.15;;;;;;;11.73;73.69;100886.78;5047150;28;20067;-75
2022/12/08 08:56:30;;;;;;;134.15;67.43;;;;;;;11.72;74.13;100868.88;5047045;28;20218;-74
2022/12/08 08:58:55;;;;;;;150.38;64.53;;;;;;;11.91;73.58;100901.41;5046299;28;20037;-75
2022/12/08 09:01:26;;;;;;;120.18;58.00;;;;;;;11.90;73.82;100917.72;5046601;28;20076;-75
2022/12/08 09:03:52;;;;;;;100.15;52.40;;;;;;;11.82;73.22;100904.88;5046175;28;20025;-76
2022/12/08 09:06:18;;;;;;;108.43;52.00;;;;;;;11.64;73.16;100874.03;5046294;28;20045;-74
2022/12/08 09:08:44;;;;;;;107.07;52.58;;;;;;;11.68;73.85;100875.47;5046306;28;20033;-74
2022/12/08 09:11:09;;;;;;;97.18;49.90;;;;;;;11.65;73.83;100867.63;5048333;28;20123;-76
2022/12/08 09:13:35;;;;;;;109.47;54.10;;;;;;;11.61;74.83;100866.19;5047632;28;20534;-76
2022/12/08 09:16:02;;;;;;;110.88;50.60;;;;;;;11.69;74.60;100871.78;5048993;28;20033;-74
2022/12/08 09:18:29;;;;;;;108.18;52.30;;;;;;;11.66;74.99;100879.25;5048794;28;20049;-75
2022/12/08 09:20:54;;;;;;;122.18;56.17;;;;;;;11.67;75.18;100881.84;5048557;28;20036;-75
2022/12/08 09:23:20;;;;;;;109.05;53.55;;;;;;;11.81;75.32;100878.91;5048441;28;20397;-76
2022/12/08 09:25:46;;;;;;;151.73;54.58;;;;;;;11.91;75.71;100879.00;5048611;28;20411;-75
2022/12/08 09:28:12;;;;;;;140.98;56.65;;;;;;;12.00;75.41;100868.31;5048780;28;20029;-76
2022/12/08 09:30:38;;;;;;;117.25;55.53;;;;;;;12.19;75.54;100867.63;5048884;28;20114;-77
2022/12/08 09:33:03;;;;;;;126.57;53.95;;;;;;;12.36;75.18;100867.03;5048846;28;20048;-74
2022/12/08 09:35:29;;;;;;;113.32;52.40;;;;;;;12.48;74.58;100846.25;5048542;28;20053;-75
2022/12/08 09:37:54;;;;;;;124.20;54.15;;;;;;;12.69;74.36;100857.88;5048551;28;20090;-75
2022/12/08 09:40:22;;;;;;;131.00;51.45;;;;;;;12.70;73.67;100840.72;5048976;28;20029;-74
2022/12/08 09:43:17;;;;;;;101.80;49.55;;;;;;;12.74;73.59;100830.53;5048846;28;20115;-75
2022/12/08 09:45:44;;;;;;;107.43;47.97;;;;;;;12.88;73.13;100822.91;5050054;28;20036;-75
2022/12/08 09:48:16;;;;;;;146.65;52.13;;;;;;;13.23;72.90;100849.56;5052951;28;20043;-75
2022/12/08 09:50:44;;;;;;;108.35;49.72;;;;;;;13.38;72.87;100841.91;5051008;28;20036;-74
2022/12/08 09:53:18;;;;;;;113.07;52.10;;;;;;;13.54;72.40;100847.66;5048645;28;20443;-75
2022/12/08 09:55:56;;;;;;;109.53;46.13;;;;;;;13.51;72.34;100812.81;5048657;28;20520;-76
2022/12/08 09:58:40;;;;;;;114.72;44.03;;;;;;;13.89;72.14;100841.72;5048465;28;20043;-74
2022/12/08 10:01:08;;;;;;;110.30;41.85;;;;;;;13.86;72.18;100798.75;5048154;28;20035;-74
2022/12/08 10:03:34;;;;;;;88.70;38.97;;;;;;;14.21;71.82;100827.94;5048330;28;20526;-75
2022/12/08 10:06:17;;;;;;;84.22;37.00;;;;;;;14.40;71.80;100838.78;5048270;28;20052;-75
2022/12/08 10:09:08;;;;;;;70.63;33.85;;;;;;;14.46;71.23;100830.09;5048012;28;20407;-75
2022/12/08 10:11:58;;;;;;;70.15;32.72;;;;;;;14.48;70.95;100814.56;5046893;28;20036;-76
2022/12/08 10:14:24;;;;;;;82.75;35.63;;;;;;;14.68;70.65;100840.56;5048063;28;20715;-74
2022/12/08 10:16:52;;;;;;;69.63;36.78;;;;;;;14.76;70.34;100831.72;5048278;28;20068;-74
2022/12/08 10:19:22;;;;;;;94.90;39.60;;;;;;;14.83;70.49;100833.69;5049947;28;20365;-75
2022/12/08 10:21:48;;;;;;;77.18;38.78;;;;;;;14.69;70.37;100802.53;5048254;28;20476;-75
2022/12/08 10:24:43;;;;;;;77.25;36.45;;;;;;;14.84;70.26;100791.22;5048240;28;20116;-76
2022/12/08 10:27:11;;;;;;;45.05;27.55;;;;;;;15.18;69.47;100825.75;5005339;28;20034;-74
2022/12/08 10:29:39;;;;;;;102.28;33.92;;;;;;;15.26;69.94;100809.56;5005964;28;20049;-76
2022/12/08 10:32:18;;;;;;;98.68;34.30;;;;;;;15.32;69.54;100812.69;5005788;28;20172;-74
2022/12/08 10:35:11;;;;;;;81.45;34.03;;;;;;;15.45;69.61;100807.75;5007092;28;20112;-74
2022/12/08 10:37:37;;;;;;;85.93;37.15;;;;;;;15.49;68.85;100787.53;5009418;28;20045;-75
2022/12/08 10:40:12;;;;;;;59.42;34.47;;;;;;;15.68;68.66;100796.38;4992703;28;20113;-76
2022/12/08 10:42:49;;;;;;;60.72;32.15;;;;;;;15.66;67.82;100778.53;5009452;28;20053;-75
2022/12/08 10:45:20;;;;;;;59.50;32.30;;;;;;;15.89;67.48;100803.38;5009242;28;20062;-77
2022/12/08 10:47:56;;;;;;;115.57;40.08;;;;;;;15.84;67.14;100781.28;5009406;28;20066;-73
2022/12/08 10:50:27;;;;;;;72.43;34.47;;;;;;;15.94;66.68;100785.59;5012276;28;20050;-75
2022/12/08 10:53:06;;;;;;;63.93;34.23;;;;;;;16.03;66.28;100798.25;5014112;28;20874;-75
2022/12/08 10:55:58;;;;;;;81.53;34.28;;;;;;;15.86;66.13;100763.00;5011297;28;20051;-76
2022/12/08 10:58:40;;;;;;;102.57;37.35;;;;;;;15.88;66.25;100771.81;5012937;28;20147;-76
2022/12/08 11:01:13;;;;;;;90.60;37.90;;;;;;;16.05;66.33;100790.81;5028780;28;20045;-76
2022/12/08 11:03:59;;;;;;;102.20;36.25;;;;;;;16.27;66.05;100784.88;5028717;28;20041;-75
2022/12/08 11:06:27;;;;;;;69.90;39.20;;;;;;;16.44;65.74;100782.28;5028899;28;20038;-75
2022/12/08 11:08:56;;;;;;;87.65;44.13;;;;;;;16.50;64.95;100785.22;5028602;28;20598;-75
2022/12/08 11:11:43;;;;;;;104.13;38.65;;;;;;;16.40;65.27;100759.19;5028541;28;20473;-76
2022/12/08 11:14:18;;;;;;;92.97;39.30;;;;;;;16.63;64.84;100769.41;5028353;28;20034;-75
2022/12/08 11:16:44;;;;;;;99.68;46.53;;;;;;;16.55;63.77;100765.75;5028068;28;20048;-75
2022/12/08 11:19:15;;;;;;;84.35;45.13;;;;;;;16.45;64.32;100765.81;5028698;28;20029;-74
2022/12/08 11:21:41;;;;;;;100.13;44.90;;;;;;;16.17;64.75;100765.16;5028350;28;20045;-75
2022/12/08 11:24:26;;;;;;;93.30;47.63;;;;;;;16.05;64.74;100749.25;5028340;28;20033;-75
2022/12/08 11:26:58;;;;;;;81.15;41.00;;;;;;;15.85;65.30;100770.25;5027871;28;20116;-77